Time;durP1;ratioP1;P1;durP2;ratioP2;P2;SDS_P1;SDS_P2;PMS_P1;PMS_P2;Temp;Humidity;BMP_temperature;BMP_pressure;BME280_temperature;BME280_humidity;BME280_pressure;Samples;Min_cycle;Max_cycle;Signal;HPM_P1;HPM_P2
2022/10/07 00:01:05;;;;;;;6.70;4.10;;;;;;;11.72;38.94;102426.22;5051074;28;20072;-82
2022/10/07 00:03:33;;;;;;;6.47;3.90;;;;;;;11.70;38.93;102425.47;5051336;28;20049;-80
2022/10/07 00:06:07;;;;;;;7.47;3.85;;;;;;;11.71;39.53;102429.97;5027535;28;20072;-81
2022/10/07 00:08:38;;;;;;;6.90;3.63;;;;;;;11.67;39.47;102428.41;5048543;28;20119;-85
2022/10/07 00:11:09;;;;;;;6.95;3.83;;;;;;;11.66;39.48;102421.16;5012678;28;20150;-82
2022/10/07 00:13:39;;;;;;;5.38;3.33;;;;;;;11.65;39.05;102427.59;5051235;28;20073;-84
2022/10/07 00:16:09;;;;;;;5.32;3.40;;;;;;;11.63;39.32;102424.13;5011493;28;20042;-80
2022/10/07 00:18:37;;;;;;;6.22;3.47;;;;;;;11.61;39.43;102423.34;5029364;28;20573;-82
2022/10/07 00:21:07;;;;;;;7.28;3.20;;;;;;;11.60;39.04;102421.53;5051085;28;20454;-82
2022/10/07 00:23:36;;;;;;;6.40;3.30;;;;;;;11.58;39.60;102418.88;5032685;28;20557;-81
2022/10/07 00:26:06;;;;;;;7.18;3.90;;;;;;;11.57;39.32;102408.91;5052443;28;20048;-81
2022/10/07 00:28:35;;;;;;;8.68;3.97;;;;;;;11.55;39.56;102415.50;5021682;28;20053;-82
2022/10/07 00:31:05;;;;;;;7.50;4.20;;;;;;;11.55;39.73;102410.88;5022533;28;20063;-82
2022/10/07 00:33:35;;;;;;;7.68;4.22;;;;;;;11.55;39.40;102399.94;5028128;28;20144;-81
2022/10/07 00:36:07;;;;;;;8.95;4.30;;;;;;;11.54;39.83;102403.66;5015099;28;20067;-81
2022/10/07 00:38:38;;;;;;;8.48;4.50;;;;;;;11.53;40.20;102404.63;5033665;28;20384;-81
2022/10/07 00:41:09;;;;;;;8.25;4.20;;;;;;;11.50;39.52;102399.34;5030809;28;20049;-81
2022/10/07 00:43:37;;;;;;;7.63;4.63;;;;;;;11.48;39.82;102395.81;5020662;28;20046;-82
2022/10/07 00:46:07;;;;;;;7.90;4.57;;;;;;;11.49;39.66;102400.31;5032587;28;20100;-81
2022/10/07 00:48:38;;;;;;;8.15;4.90;;;;;;;11.47;39.69;102396.78;5015257;28;20041;-82
2022/10/07 00:51:08;;;;;;;8.32;4.45;;;;;;;11.47;39.52;102395.94;5018162;28;20072;-81
2022/10/07 00:53:41;;;;;;;7.80;4.15;;;;;;;11.46;39.94;102396.91;5022043;28;20042;-82
2022/10/07 00:56:09;;;;;;;6.23;3.80;;;;;;;11.42;39.54;102392.59;5051456;28;20041;-81
2022/10/07 00:58:41;;;;;;;6.18;4.07;;;;;;;11.43;39.94;102394.38;5015759;28;20334;-81
2022/10/07 01:01:10;;;;;;;6.22;3.83;;;;;;;11.39;39.90;102385.44;5045872;28;20052;-81
2022/10/07 01:03:38;;;;;;;7.70;3.53;;;;;;;11.39;39.76;102385.44;5015202;28;20034;-81
2022/10/07 01:06:06;;;;;;;6.45;4.00;;;;;;;11.38;40.03;102374.63;5047721;28;20132;-81
2022/10/07 01:08:34;;;;;;;5.60;3.63;;;;;;;11.36;39.91;102377.47;5029469;28;20052;-81
2022/10/07 01:11:13;;;;;;;5.70;3.60;;;;;;;11.38;40.58;102378.25;5019318;28;20046;-80
2022/10/07 01:13:57;;;;;;;7.32;3.40;;;;;;;11.35;40.39;102378.44;5029222;28;20481;-81
2022/10/07 01:16:32;;;;;;;6.05;3.28;;;;;;;11.32;40.12;102368.53;5031529;28;20048;-81
2022/10/07 01:19:09;;;;;;;7.15;3.13;;;;;;;11.30;40.00;102361.44;5024888;28;20053;-80
2022/10/07 01:21:47;;;;;;;7.38;3.42;;;;;;;11.27;40.09;102368.00;5038365;28;20562;-80
2022/10/07 01:24:32;;;;;;;5.78;2.88;;;;;;;11.25;40.64;102364.47;5020865;28;20107;-81
2022/10/07 01:27:05;;;;;;;5.68;2.90;;;;;;;11.22;40.38;102361.06;5052226;28;20042;-80
2022/10/07 01:29:36;;;;;;;7.13;3.30;;;;;;;11.20;40.19;102363.00;5050565;28;20045;-80
2022/10/07 01:32:11;;;;;;;6.10;3.00;;;;;;;11.19;40.20;102353.91;5021555;28;20056;-82
2022/10/07 01:34:42;;;;;;;5.28;3.03;;;;;;;11.15;40.26;102348.72;5043356;28;20080;-82
2022/10/07 01:37:15;;;;;;;5.38;2.72;;;;;;;11.14;40.27;102344.25;5005325;28;20045;-82
2022/10/07 01:39:48;;;;;;;6.85;3.22;;;;;;;11.10;40.33;102346.31;5031252;28;20108;-81
2022/10/07 01:42:19;;;;;;;7.30;3.10;;;;;;;11.10;40.17;102339.94;5027125;28;20094;-83
2022/10/07 01:44:49;;;;;;;6.85;2.78;;;;;;;11.07;40.27;102341.00;5022266;28;20045;-80
2022/10/07 01:47:17;;;;;;;6.30;2.80;;;;;;;11.05;40.28;102336.63;5034994;28;20475;-79
2022/10/07 01:49:45;;;;;;;6.53;3.10;;;;;;;11.02;40.06;102326.75;5035371;28;20052;-79
2022/10/07 01:52:30;;;;;;;6.78;3.17;;;;;;;11.02;40.67;102326.75;5024047;28;20037;-80
2022/10/07 01:55:14;;;;;;;5.25;2.75;;;;;;;11.01;41.02;102332.31;5040825;28;20105;-80
2022/10/07 01:57:52;;;;;;;5.57;2.78;;;;;;;10.97;40.82;102324.34;5052505;28;20451;-80
2022/10/07 02:00:21;;;;;;;8.00;2.97;;;;;;;10.93;40.37;102320.03;5038525;23;20202;-80
2022/10/07 02:03:16;;;;;;;6.18;2.75;;;;;;;10.92;40.91;102317.38;5009968;28;20102;-81
2022/10/07 02:05:51;;;;;;;6.05;2.75;;;;;;;10.90;40.83;102312.00;5005177;28;20049;-80
2022/10/07 02:08:31;;;;;;;7.15;3.30;;;;;;;10.89;41.12;102303.91;5012935;28;20042;-82
2022/10/07 02:11:22;;;;;;;6.40;3.30;;;;;;;10.83;40.99;102296.94;5017554;28;20139;-82
2022/10/07 02:14:03;;;;;;;6.75;2.83;;;;;;;10.84;40.62;102298.72;5011359;28;20050;-82
2022/10/07 02:16:39;;;;;;;6.95;3.08;;;;;;;10.83;40.82;102290.59;5007026;28;20053;-82
2022/10/07 02:19:14;;;;;;;6.53;3.25;;;;;;;10.82;40.71;102291.56;5015047;28;20500;-80
2022/10/07 02:21:45;;;;;;;6.50;3.33;;;;;;;10.82;40.53;102292.44;5014205;28;20053;-81
2022/10/07 02:24:15;;;;;;;5.70;2.85;;;;;;;10.81;40.30;102295.31;5001096;28;20045;-80
2022/10/07 02:26:46;;;;;;;5.90;3.13;;;;;;;10.81;40.73;102293.44;5008638;28;20061;-81
2022/10/07 02:29:20;;;;;;;6.28;2.95;;;;;;;10.80;41.10;102288.97;5015365;28;20504;-79
2022/10/07 02:31:50;;;;;;;8.07;3.15;;;;;;;10.79;40.44;102283.56;5012095;28;20050;-79
2022/10/07 02:34:23;;;;;;;8.00;3.00;;;;;;;10.79;41.00;102284.47;5020394;28;20056;-80
2022/10/07 02:36:54;;;;;;;7.35;3.20;;;;;;;10.79;40.95;102281.72;5016049;28;20038;-79
2022/10/07 02:39:22;;;;;;;7.78;2.85;;;;;;;10.76;40.94;102273.69;5019310;28;20052;-80
2022/10/07 02:42:02;;;;;;;4.53;2.60;;;;;;;10.78;41.11;102274.47;5026832;28;20046;-81
2022/10/07 02:44:39;;;;;;;4.88;2.65;;;;;;;10.78;41.25;102279.06;5012770;28;20073;-81
2022/10/07 02:47:15;;;;;;;6.07;2.90;;;;;;;10.76;40.86;102270.06;5006312;28;20055;-81
2022/10/07 02:49:46;;;;;;;5.25;2.28;;;;;;;10.75;40.95;102273.78;5016326;28;20470;-81
2022/10/07 02:52:17;;;;;;;4.95;2.47;;;;;;;10.74;40.58;102263.81;5016886;28;20046;-81
2022/10/07 02:54:51;;;;;;;6.38;2.95;;;;;;;10.72;40.93;102263.06;5031389;28;20052;-81
2022/10/07 02:57:23;;;;;;;6.97;2.80;;;;;;;10.70;41.15;102257.69;5014856;28;20041;-81
2022/10/07 02:59:54;;;;;;;5.25;2.50;;;;;;;10.71;40.71;102255.81;5007715;28;20049;-79
2022/10/07 03:02:29;;;;;;;6.25;2.67;;;;;;;10.71;41.10;102255.81;5009201;28;20050;-82
2022/10/07 03:04:57;;;;;;;6.65;2.95;;;;;;;10.68;40.88;102248.69;5015692;28;20448;-82
2022/10/07 03:07:26;;;;;;;5.28;3.08;;;;;;;10.66;40.79;102252.50;5015101;28;20045;-81
2022/10/07 03:09:54;;;;;;;4.80;2.50;;;;;;;10.67;40.76;102246.03;5015545;28;20049;-80
2022/10/07 03:12:22;;;;;;;5.07;2.60;;;;;;;10.64;40.67;102238.03;5015201;28;20110;-80
2022/10/07 03:14:51;;;;;;;6.43;2.63;;;;;;;10.65;40.81;102248.88;5017499;28;20049;-80
2022/10/07 03:17:21;;;;;;;4.57;2.40;;;;;;;10.67;41.02;102246.03;5034660;28;20503;-80
2022/10/07 03:19:49;;;;;;;4.95;2.70;;;;;;;10.66;41.13;102242.41;5018969;28;20160;-79
2022/10/07 03:22:17;;;;;;;4.90;2.58;;;;;;;10.66;40.67;102239.69;5018087;28;20049;-79
2022/10/07 03:24:48;;;;;;;7.00;2.70;;;;;;;10.66;40.89;102236.06;5013074;28;20046;-78
2022/10/07 03:27:17;;;;;;;4.50;2.45;;;;;;;10.66;41.24;102236.94;5031343;28;20049;-79
2022/10/07 03:29:46;;;;;;;5.40;2.80;;;;;;;10.65;40.96;102235.19;5015478;28;20042;-79
2022/10/07 03:32:14;;;;;;;6.18;2.60;;;;;;;10.64;40.89;102232.56;5014883;28;20053;-80
2022/10/07 03:34:43;;;;;;;6.60;2.90;;;;;;;10.62;40.74;102232.66;5016622;28;20125;-80
2022/10/07 03:37:11;;;;;;;4.65;2.70;;;;;;;10.61;40.91;102228.16;5016444;28;20041;-80
2022/10/07 03:39:39;;;;;;;6.32;2.65;;;;;;;10.59;41.05;102224.66;5032886;28;20049;-80
2022/10/07 03:42:08;;;;;;;6.03;2.80;;;;;;;10.55;40.83;102221.25;5015045;28;20377;-80
2022/10/07 03:44:37;;;;;;;5.45;2.38;;;;;;;10.52;41.05;102217.78;5018439;28;20101;-80
2022/10/07 03:47:07;;;;;;;4.70;2.58;;;;;;;10.50;40.79;102226.09;5017647;28;20041;-80
2022/10/07 03:49:38;;;;;;;5.47;2.78;;;;;;;10.48;40.80;102225.31;5017590;28;20049;-80
2022/10/07 03:52:08;;;;;;;6.88;2.65;;;;;;;10.48;40.81;102227.19;5013231;28;20041;-80
2022/10/07 03:54:35;;;;;;;4.50;2.40;;;;;;;10.45;41.31;102222.78;5017436;28;20073;-80
2022/10/07 03:57:48;;;;;;;5.75;2.92;;;;;;;10.44;41.11;102225.63;5016212;28;20049;-80
2022/10/07 03:59:54;;;;;;;6.20;2.72;;;;;;;10.41;41.08;102217.59;5016874;28;20073;-80
2022/10/07 04:02:23;;;;;;;4.80;2.67;;;;;;;10.41;40.99;102221.22;5014022;28;20518;-80
2022/10/07 04:04:51;;;;;;;5.97;2.80;;;;;;;10.39;41.12;102217.72;5013747;28;20050;-80
2022/10/07 04:07:22;;;;;;;6.25;3.10;;;;;;;10.40;41.09;102216.72;5028878;28;20033;-80
2022/10/07 04:09:51;;;;;;;6.32;3.00;;;;;;;10.36;41.32;102208.81;5016516;28;20559;-80
2022/10/07 04:12:19;;;;;;;6.80;2.72;;;;;;;10.35;40.92;102216.16;5010394;28;20057;-80
2022/10/07 04:14:47;;;;;;;6.47;2.92;;;;;;;10.34;41.08;102208.03;5015653;28;20041;-80
2022/10/07 04:17:17;;;;;;;5.68;2.90;;;;;;;10.35;41.56;102212.53;5016021;28;20451;-80
2022/10/07 04:19:46;;;;;;;5.97;2.47;;;;;;;10.31;41.01;102211.88;5016070;28;20071;-80
2022/10/07 04:22:14;;;;;;;5.22;2.80;;;;;;;10.30;41.48;102204.66;5013875;28;20119;-81
2022/10/07 04:25:32;;;;;;;5.28;2.80;;;;;;;10.31;41.20;102206.41;5016514;28;20050;-80
2022/10/07 04:27:32;;;;;;;6.05;2.78;;;;;;;10.27;41.46;102203.94;5014597;28;20059;-81
2022/10/07 04:30:19;;;;;;;6.15;2.90;;;;;;;10.24;41.42;102205.00;5014372;28;20041;-81
2022/10/07 04:32:49;;;;;;;5.25;2.70;;;;;;;10.26;41.34;102208.53;5018757;28;20625;-80
2022/10/07 04:35:20;;;;;;;6.03;3.00;;;;;;;10.23;41.24;102201.41;5014754;28;20048;-80
2022/10/07 04:37:50;;;;;;;7.25;3.28;;;;;;;10.21;41.44;102195.16;5015813;28;20056;-80
2022/10/07 04:40:21;;;;;;;5.30;2.63;;;;;;;10.20;41.38;102185.19;4999413;28;20049;-80
2022/10/07 04:45:36;;;;;;;7.68;3.08;;;;;;;10.14;41.64;102192.94;5018613;28;20053;-79
2022/10/07 04:48:06;;;;;;;6.80;3.28;;;;;;;10.12;41.68;102187.56;5019442;28;20446;-80
2022/10/07 04:50:37;;;;;;;7.10;3.45;;;;;;;10.12;41.44;102186.69;5006674;28;20469;-80
2022/10/07 04:53:07;;;;;;;6.25;3.17;;;;;;;10.09;41.54;102186.88;5031507;28;20136;-81
2022/10/07 04:55:39;;;;;;;6.28;3.03;;;;;;;10.10;41.58;102186.78;5006344;28;20057;-80
2022/10/07 04:58:08;;;;;;;6.30;3.28;;;;;;;10.08;41.57;102185.97;5018688;28;20061;-80
2022/10/07 05:00:41;;;;;;;8.05;3.28;;;;;;;10.08;42.13;102185.97;5002005;28;20049;-81
2022/10/07 05:03:09;;;;;;;6.40;3.08;;;;;;;10.05;41.65;102177.13;5011327;28;20060;-81
2022/10/07 05:05:41;;;;;;;7.60;3.30;;;;;;;10.06;42.01;102184.34;5009727;28;20073;-80
2022/10/07 05:08:09;;;;;;;5.88;3.35;;;;;;;10.03;41.69;102179.06;5025001;28;20052;-79
2022/10/07 05:10:41;;;;;;;6.22;3.05;;;;;;;10.06;42.14;102176.13;4986127;28;20042;-81
2022/10/07 05:13:11;;;;;;;6.95;2.97;;;;;;;10.04;41.75;102175.34;5015729;28;20088;-80
2022/10/07 05:15:47;;;;;;;7.28;2.65;;;;;;;10.04;42.09;102169.88;5012979;28;20323;-81
2022/10/07 05:18:17;;;;;;;6.30;3.03;;;;;;;10.01;42.03;102181.00;5030594;28;20053;-81
2022/10/07 05:20:46;;;;;;;5.78;3.00;;;;;;;10.01;41.85;102173.69;5012588;28;20037;-80
2022/10/07 05:23:15;;;;;;;6.10;2.70;;;;;;;9.99;41.93;102169.31;5013374;28;20057;-80
2022/10/07 05:25:45;;;;;;;5.80;2.83;;;;;;;10.01;42.19;102173.69;5012898;28;20052;-80
2022/10/07 05:28:15;;;;;;;5.82;2.92;;;;;;;9.99;41.85;102174.78;5013154;28;20069;-80
2022/10/07 05:30:43;;;;;;;6.38;2.90;;;;;;;9.97;41.70;102169.41;4969091;28;20053;-80
2022/10/07 05:33:11;;;;;;;6.97;3.20;;;;;;;9.96;41.67;102161.28;5002620;28;20046;-80
2022/10/07 05:35:45;;;;;;;7.90;2.80;;;;;;;9.97;42.35;102166.66;5012135;28;20038;-81
2022/10/07 05:38:13;;;;;;;5.82;2.50;;;;;;;9.94;42.14;102166.84;5010775;28;20501;-80
2022/10/07 05:40:41;;;;;;;7.78;2.90;;;;;;;9.95;41.93;102165.00;4998953;28;20041;-81
2022/10/07 05:43:11;;;;;;;5.38;2.70;;;;;;;9.96;42.01;102169.50;5011872;28;20508;-81
2022/10/07 05:45:39;;;;;;;6.90;2.88;;;;;;;9.93;41.85;102159.63;5031226;28;20414;-80
2022/10/07 05:48:08;;;;;;;7.60;3.35;;;;;;;9.91;42.33;102160.69;5014628;28;20060;-80
2022/10/07 05:50:35;;;;;;;6.95;3.00;;;;;;;9.93;42.27;102166.94;5013757;28;20468;-80
2022/10/07 05:53:06;;;;;;;6.25;2.88;;;;;;;9.89;42.00;102158.09;5014289;28;20124;-80
2022/10/07 05:55:34;;;;;;;7.40;3.15;;;;;;;9.90;41.98;102158.97;5031503;28;20598;-80
2022/10/07 05:58:07;;;;;;;6.78;2.88;;;;;;;9.88;42.09;102148.13;5017181;28;20140;-79
2022/10/07 06:00:40;;;;;;;7.15;2.78;;;;;;;9.89;42.03;102151.72;5013165;28;20061;-80
2022/10/07 06:03:08;;;;;;;5.05;2.90;;;;;;;9.88;42.01;102149.97;5001346;28;20056;-79
2022/10/07 06:05:39;;;;;;;7.47;3.17;;;;;;;9.88;42.45;102152.72;5013293;28;20037;-80
2022/10/07 06:08:06;;;;;;;5.60;2.90;;;;;;;9.88;42.43;102159.06;5014870;28;20049;-80
2022/10/07 06:13:23;;;;;;;5.20;2.80;;;;;;;9.84;42.37;102155.63;4998004;28;20520;-81
2022/10/07 06:15:53;;;;;;;6.60;2.85;;;;;;;9.87;42.02;102156.41;5017942;28;20041;-79
2022/10/07 06:18:21;;;;;;;7.43;3.40;;;;;;;9.85;42.17;102145.56;5020675;28;20046;-79
2022/10/07 06:20:55;;;;;;;6.78;3.20;;;;;;;9.89;42.86;102154.47;4978014;28;20050;-80
2022/10/07 06:23:25;;;;;;;5.80;2.88;;;;;;;9.85;42.54;102149.19;5012263;28;20089;-80
2022/10/07 06:25:57;;;;;;;7.03;2.92;;;;;;;9.88;42.83;102144.50;5017402;28;20059;-80
2022/10/07 06:28:32;;;;;;;9.02;3.00;;;;;;;9.90;42.92;102148.91;5019001;28;20401;-80
2022/10/07 06:31:04;;;;;;;7.47;3.13;;;;;;;9.93;43.22;102142.34;5017876;28;20393;-81
2022/10/07 06:33:32;;;;;;;8.07;3.10;;;;;;;9.95;43.34;102143.13;5019207;28;20105;-80
2022/10/07 06:36:02;;;;;;;6.75;3.00;;;;;;;10.04;43.67;102145.25;5021336;28;20235;-80
2022/10/07 06:38:32;;;;;;;6.07;2.97;;;;;;;10.11;43.83;102146.63;5018137;28;20045;-81
2022/10/07 06:41:01;;;;;;;6.13;2.70;;;;;;;10.23;43.99;102143.09;5014054;28;20392;-80
2022/10/07 06:43:33;;;;;;;4.22;2.83;;;;;;;10.40;44.25;102144.72;5010255;28;20618;-81
2022/10/07 06:46:07;;;;;;;6.15;2.83;;;;;;;10.58;44.07;102149.84;5015947;28;20068;-80
2022/10/07 06:48:40;;;;;;;7.45;2.83;;;;;;;10.75;43.97;102147.81;5007845;28;20100;-80
2022/10/07 06:51:10;;;;;;;6.13;2.85;;;;;;;10.95;44.02;102148.22;4978954;28;20558;-80
2022/10/07 06:53:39;;;;;;;4.93;2.95;;;;;;;11.16;44.39;102148.59;5018079;28;20124;-82
2022/10/07 06:56:07;;;;;;;7.68;3.30;;;;;;;11.40;43.96;102153.34;5012394;28;20065;-82
2022/10/07 06:58:37;;;;;;;5.82;2.97;;;;;;;11.61;43.67;102143.63;5008926;28;20088;-81
2022/10/07 07:01:07;;;;;;;7.57;3.13;;;;;;;11.87;43.46;102150.88;5015745;28;20416;-80
2022/10/07 07:03:36;;;;;;;5.45;3.05;;;;;;;12.09;43.21;102151.03;5017760;28;20050;-80
2022/10/07 07:06:06;;;;;;;5.15;3.10;;;;;;;12.37;43.14;102149.00;5007463;28;20119;-80
2022/10/07 07:08:35;;;;;;;6.78;3.70;;;;;;;12.59;42.63;102151.88;5017365;28;20077;-82
2022/10/07 07:11:34;;;;;;;6.22;3.15;;;;;;;12.84;42.21;102145.41;5014447;28;20455;-82
2022/10/07 07:13:59;;;;;;;7.23;2.73;;;;;;;13.07;42.04;102150.00;5016870;28;20056;-81
2022/10/07 07:16:31;;;;;;;5.97;2.95;;;;;;;13.37;41.79;102148.56;5007710;28;20056;-82
2022/10/07 07:19:01;;;;;;;6.43;2.80;;;;;;;13.60;41.32;102151.31;5017102;28;20045;-82
2022/10/07 07:21:29;;;;;;;4.40;2.40;;;;;;;13.82;41.16;102153.19;5013048;28;20456;-82
2022/10/07 07:23:58;;;;;;;6.25;2.80;;;;;;;14.05;40.38;102143.06;5014511;28;20116;-83
2022/10/07 07:26:27;;;;;;;5.28;2.67;;;;;;;14.27;40.58;102139.44;5010495;28;20433;-82
2022/10/07 07:28:58;;;;;;;5.78;2.80;;;;;;;14.49;40.18;102141.28;5017690;28;20303;-83
2022/10/07 07:31:32;;;;;;;5.93;3.08;;;;;;;14.68;39.48;102141.50;5004374;28;20441;-83
2022/10/07 07:34:03;;;;;;;5.63;2.75;;;;;;;14.88;39.64;102140.66;5017874;28;20508;-82
2022/10/07 07:36:33;;;;;;;5.40;3.05;;;;;;;15.06;38.57;102136.31;5032800;28;20049;-81
2022/10/07 07:39:07;;;;;;;6.88;2.63;;;;;;;15.24;38.66;102138.47;5021979;28;20045;-81
2022/10/07 07:41:37;;;;;;;6.78;2.90;;;;;;;15.35;38.07;102130.16;4983450;28;20053;-81
2022/10/07 07:44:09;;;;;;;6.45;3.05;;;;;;;15.47;37.47;102138.25;5005155;28;20046;-81
2022/10/07 07:46:43;;;;;;;4.90;2.45;;;;;;;15.57;37.26;102135.53;5013418;28;20046;-81
2022/10/07 07:49:13;;;;;;;6.00;2.55;;;;;;;15.63;36.92;102136.88;5022320;28;20475;-81
2022/10/07 07:51:43;;;;;;;5.32;2.67;;;;;;;15.68;36.99;102129.03;5025971;28;20042;-81
2022/10/07 07:54:17;;;;;;;5.32;2.70;;;;;;;15.72;36.74;102136.06;5015210;28;20128;-81
2022/10/07 07:56:48;;;;;;;6.00;2.60;;;;;;;15.73;36.25;102133.16;5020357;28;20124;-81
2022/10/07 07:59:19;;;;;;;7.78;2.75;;;;;;;15.75;36.43;102133.03;5045847;28;20045;-80
2022/10/07 08:01:50;;;;;;;5.18;2.70;;;;;;;15.77;36.15;102131.88;5017336;28;20144;-82
2022/10/07 08:04:18;;;;;;;7.30;2.67;;;;;;;15.71;35.77;102131.53;5017532;28;20589;-83
2022/10/07 08:06:46;;;;;;;5.28;2.47;;;;;;;15.70;35.86;102127.91;5018042;28;20519;-82
2022/10/07 08:09:14;;;;;;;8.73;2.90;;;;;;;15.68;35.99;102134.56;5022367;28;20041;-82
2022/10/07 08:11:47;;;;;;;6.60;2.67;;;;;;;15.66;35.84;102123.69;5023318;28;20076;-82
2022/10/07 08:14:17;;;;;;;5.65;2.80;;;;;;;15.63;36.02;102129.47;5011858;28;20650;-83
2022/10/07 08:16:47;;;;;;;6.55;2.60;;;;;;;15.62;35.98;102124.97;5016633;28;20155;-81
2022/10/07 08:19:18;;;;;;;5.65;2.60;;;;;;;15.63;35.90;102120.31;5004331;28;20057;-81
2022/10/07 08:21:46;;;;;;;5.30;2.47;;;;;;;15.61;36.57;102120.44;5012464;28;20428;-82
2022/10/07 08:24:21;;;;;;;5.75;2.40;;;;;;;15.58;36.12;102115.22;5016945;28;20045;-81
2022/10/07 08:26:49;;;;;;;7.97;2.95;;;;;;;15.59;36.56;102108.66;5015693;28;20056;-82
2022/10/07 08:29:17;;;;;;;5.57;2.63;;;;;;;15.60;36.63;102115.06;5013856;28;20133;-81
2022/10/07 08:31:45;;;;;;;6.15;2.63;;;;;;;15.59;36.92;102113.34;4995773;28;20248;-82
2022/10/07 08:34:16;;;;;;;4.60;2.17;;;;;;;15.61;36.93;102111.28;5006858;28;20037;-82
2022/10/07 08:36:46;;;;;;;5.43;2.50;;;;;;;15.63;36.84;102117.56;5031903;28;20046;-82
2022/10/07 08:39:14;;;;;;;6.28;2.40;;;;;;;15.65;36.85;102110.91;5016087;28;20041;-81
2022/10/07 08:41:53;;;;;;;5.45;2.78;;;;;;;15.70;36.12;102104.94;5023419;28;20416;-81
2022/10/07 08:44:28;;;;;;;8.98;2.90;;;;;;;15.71;36.31;102106.72;5032791;28;20069;-81
2022/10/07 08:47:02;;;;;;;5.97;2.65;;;;;;;15.75;36.69;102100.78;5015534;28;20038;-81
2022/10/07 08:49:43;;;;;;;7.82;2.72;;;;;;;15.79;36.15;102105.00;5017325;28;20049;-82
2022/10/07 08:52:27;;;;;;;5.20;2.75;;;;;;;15.82;36.45;102101.09;5032664;28;20508;-82
2022/10/07 08:54:55;;;;;;;4.97;1.95;;;;;;;15.83;36.67;102092.69;5016201;28;20084;-82
2022/10/07 08:57:45;;;;;;;5.78;2.42;;;;;;;15.92;36.81;102095.63;5016454;28;20496;-82
2022/10/07 09:00:18;;;;;;;6.20;2.17;;;;;;;15.95;36.55;102089.81;5010717;28;20069;-82
2022/10/07 09:03:06;;;;;;;4.63;1.92;;;;;;;16.01;36.29;102090.13;5012627;28;20033;-82
2022/10/07 09:05:40;;;;;;;4.00;2.00;;;;;;;16.07;36.45;102084.06;5032954;28;20050;-81
2022/10/07 09:08:14;;;;;;;5.38;2.30;;;;;;;16.14;36.14;102082.47;5022898;28;20050;-82
2022/10/07 09:10:47;;;;;;;5.85;2.30;;;;;;;16.19;36.73;102074.66;5020502;28;20041;-81
2022/10/07 09:13:20;;;;;;;5.88;2.20;;;;;;;16.27;36.45;102076.69;5042378;28;20312;-81
2022/10/07 09:16:06;;;;;;;6.63;2.65;;;;;;;16.32;36.07;102074.41;5027317;28;20042;-82
2022/10/07 09:18:39;;;;;;;5.72;2.10;;;;;;;16.40;36.67;102070.94;5026858;28;20065;-81
2022/10/07 09:21:17;;;;;;;5.40;2.53;;;;;;;16.45;36.16;102063.94;5016913;28;20049;-82
2022/10/07 09:23:47;;;;;;;5.45;2.30;;;;;;;16.52;36.53;102059.59;5020036;28;20045;-82
2022/10/07 09:26:16;;;;;;;6.28;2.28;;;;;;;16.60;36.02;102061.63;4974757;28;20050;-82
2022/10/07 09:28:44;;;;;;;5.57;2.10;;;;;;;16.65;36.04;102059.31;5016356;28;20064;-81
2022/10/07 09:31:14;;;;;;;4.68;1.90;;;;;;;16.75;36.45;102049.09;5024400;28;20551;-81
2022/10/07 09:33:45;;;;;;;4.40;1.92;;;;;;;16.81;36.45;102042.13;5023852;28;20404;-82
2022/10/07 09:36:18;;;;;;;4.95;2.10;;;;;;;16.88;35.94;102035.88;5038751;28;20492;-82
2022/10/07 09:38:48;;;;;;;5.45;2.00;;;;;;;16.94;36.35;102038.03;5021910;28;20052;-81
2022/10/07 09:41:19;;;;;;;7.05;2.20;;;;;;;17.04;36.04;102035.31;5016782;28;20061;-81
2022/10/07 09:44:04;;;;;;;5.55;2.10;;;;;;;17.14;35.75;102038.94;5043388;28;20046;-81
2022/10/07 09:46:45;;;;;;;4.45;2.00;;;;;;;17.21;35.67;102036.44;4976588;28;20042;-82
2022/10/07 09:49:40;;;;;;;4.28;2.15;;;;;;;17.25;35.17;102029.56;5020402;28;20056;-81
2022/10/07 09:52:18;;;;;;;4.75;1.80;;;;;;;17.37;35.50;102028.38;5008326;28;20053;-83
2022/10/07 09:54:48;;;;;;;6.38;2.28;;;;;;;17.43;35.73;102032.41;5007216;28;20166;-82
2022/10/07 09:57:26;;;;;;;6.05;2.10;;;;;;;17.53;35.29;102030.50;5040407;28;20076;-82
2022/10/07 10:00:16;;;;;;;5.53;2.05;;;;;;;17.57;35.42;102029.16;5012657;28;20049;-82
2022/10/07 10:02:48;;;;;;;8.80;2.17;;;;;;;17.64;35.57;102028.41;5050446;28;20049;-81
2022/10/07 10:05:23;;;;;;;4.65;2.08;;;;;;;17.71;34.32;102020.38;5036486;28;20069;-81
2022/10/07 10:08:00;;;;;;;4.70;2.30;;;;;;;17.82;34.65;102025.72;5029600;28;20089;-82
2022/10/07 10:10:31;;;;;;;5.88;1.95;;;;;;;17.86;35.35;102015.22;5019955;28;20081;-82
2022/10/07 10:13:00;;;;;;;5.68;1.90;;;;;;;17.93;34.98;102019.97;5025507;28;20069;-83
2022/10/07 10:15:41;;;;;;;6.68;2.10;;;;;;;18.01;34.68;102006.22;5006505;28;20087;-82
2022/10/07 10:18:32;;;;;;;5.88;1.88;;;;;;;18.04;34.33;102000.41;5024436;28;20054;-82
2022/10/07 10:21:26;;;;;;;5.63;1.73;;;;;;;18.10;34.58;101993.34;5039538;28;20049;-82
2022/10/07 10:23:57;;;;;;;4.72;1.60;;;;;;;18.21;34.57;101995.91;5035167;28;20037;-82
2022/10/07 10:26:50;;;;;;;4.53;1.67;;;;;;;18.30;34.68;101991.31;5020038;28;20108;-82
2022/10/07 10:29:44;;;;;;;5.20;1.70;;;;;;;18.36;34.62;101979.59;5023268;28;20041;-82
2022/10/07 10:32:43;;;;;;;6.25;1.67;;;;;;;18.44;34.52;101986.09;4999778;28;20133;-82
2022/10/07 10:35:18;;;;;;;4.30;1.80;;;;;;;18.51;34.64;101969.72;5016053;28;20400;-83
2022/10/07 10:38:09;;;;;;;5.47;1.98;;;;;;;18.60;34.39;101965.13;5009137;28;20054;-83
2022/10/07 10:40:41;;;;;;;4.65;1.58;;;;;;;18.66;34.24;101968.09;5010027;28;20054;-82
2022/10/07 10:43:27;;;;;;;5.32;1.95;;;;;;;18.72;33.70;101961.06;5036170;28;20054;-82
2022/10/07 10:46:19;;;;;;;5.72;1.90;;;;;;;18.78;33.97;101955.75;5017006;28;20042;-82
2022/10/07 10:48:53;;;;;;;4.70;1.87;;;;;;;18.80;33.74;101956.44;5012063;28;20045;-83
2022/10/07 10:51:38;;;;;;;5.90;1.80;;;;;;;18.89;33.56;101949.03;4986056;28;20107;-82
2022/10/07 10:54:17;;;;;;;6.93;1.98;;;;;;;18.94;33.75;101943.88;5020133;28;20049;-83
2022/10/07 10:56:54;;;;;;;5.80;1.70;;;;;;;19.00;33.24;101942.34;5015595;28;20083;-83
2022/10/07 10:59:41;;;;;;;5.40;1.75;;;;;;;19.03;33.04;101928.16;5016019;28;20046;-82
2022/10/07 11:02:40;;;;;;;5.00;1.65;;;;;;;19.07;33.37;101926.78;5016369;28;20057;-82
2022/10/07 11:05:15;;;;;;;3.72;1.63;;;;;;;19.13;33.12;101924.22;5009223;28;20053;-83
2022/10/07 11:07:48;;;;;;;5.47;1.63;;;;;;;19.18;33.05;101919.06;4999237;28;20048;-82
2022/10/07 11:10:21;;;;;;;4.88;1.60;;;;;;;19.22;33.05;101919.63;5009313;28;20092;-82
2022/10/07 11:12:55;;;;;;;6.10;1.60;;;;;;;19.26;33.24;101912.72;5005063;28;20084;-82
2022/10/07 11:15:28;;;;;;;4.70;1.70;;;;;;;19.30;33.36;101908.56;5017763;28;20411;-83
2022/10/07 11:17:58;;;;;;;;;;;;;;;19.02;34.28;101896.78;5008675;28;20041;-83
2022/10/07 11:20:32;;;;;;;6.00;1.60;;;;;;;19.33;33.29;101904.59;4989114;28;20443;-83
2022/10/07 11:23:07;;;;;;;4.90;1.50;;;;;;;19.40;32.77;101897.31;5018943;28;20392;-82
2022/10/07 11:25:42;;;;;;;4.95;1.50;;;;;;;19.43;32.48;101881.22;5020276;28;20072;-82
2022/10/07 11:28:19;;;;;;;4.97;1.60;;;;;;;19.46;31.91;101878.09;5022188;28;20119;-83
2022/10/07 11:30:54;;;;;;;3.20;1.30;;;;;;;19.49;32.28;101883.31;5015068;28;20038;-83
2022/10/07 11:33:27;;;;;;;3.55;1.33;;;;;;;19.51;32.34;101872.03;5014899;28;20046;-82
2022/10/07 11:36:02;;;;;;;4.57;1.38;;;;;;;19.54;32.43;101864.22;5010450;28;20052;-83
2022/10/07 11:38:33;;;;;;;5.50;1.27;;;;;;;19.56;31.82;101866.84;5041688;28;20045;-83
2022/10/07 11:41:07;;;;;;;4.82;1.45;;;;;;;19.56;32.08;101855.75;5016305;28;20049;-81
2022/10/07 11:43:44;;;;;;;6.45;1.73;;;;;;;19.61;31.69;101862.53;5015790;28;20175;-82
2022/10/07 11:46:18;;;;;;;4.43;1.17;;;;;;;19.62;31.59;101846.75;5031624;28;20042;-82
2022/10/07 11:48:49;;;;;;;5.30;1.52;;;;;;;19.65;31.61;101844.47;5016099;28;20145;-82
2022/10/07 11:51:24;;;;;;;5.35;1.30;;;;;;;19.70;31.36;101841.22;4987157;28;20088;-82
2022/10/07 11:53:58;;;;;;;4.80;1.52;;;;;;;19.70;31.66;101832.88;5015243;28;20052;-82
2022/10/07 11:56:28;;;;;;;4.28;1.42;;;;;;;19.75;31.89;101824.03;5015717;28;20132;-82
2022/10/07 11:58:59;;;;;;;5.18;1.58;;;;;;;19.78;30.99;101815.34;5016296;28;20060;-82